sensor_id;sensor_type;location;lat;lon;timestamp;P1;durP1;ratioP1;P2;durP2;ratioP2
43606;SDS011;29197;44.788;10.366;2022-09-17T00:01:19;0.80;;;0.60;;
43606;SDS011;29197;44.788;10.366;2022-09-17T00:04:12;1.90;;;0.80;;
43606;SDS011;29197;44.788;10.366;2022-09-17T00:07:01;2.53;;;1.08;;
43606;SDS011;29197;44.788;10.366;2022-09-17T00:09:51;3.67;;;1.00;;
43606;SDS011;29197;44.788;10.366;2022-09-17T00:12:41;3.50;;;2.20;;
43606;SDS011;29197;44.788;10.366;2022-09-17T00:15:30;2.60;;;0.90;;
43606;SDS011;29197;44.788;10.366;2022-09-17T00:18:19;1.38;;;0.73;;
43606;SDS011;29197;44.788;10.366;2022-09-17T00:21:15;3.40;;;0.77;;
43606;SDS011;29197;44.788;10.366;2022-09-17T00:24:05;2.13;;;0.80;;
43606;SDS011;29197;44.788;10.366;2022-09-17T00:26:54;3.60;;;1.40;;
43606;SDS011;29197;44.788;10.366;2022-09-17T00:29:44;2.75;;;1.00;;
43606;SDS011;29197;44.788;10.366;2022-09-17T00:32:36;3.60;;;1.02;;
43606;SDS011;29197;44.788;10.366;2022-09-17T00:35:25;3.53;;;0.90;;
43606;SDS011;29197;44.788;10.366;2022-09-17T00:38:16;5.40;;;1.35;;
43606;SDS011;29197;44.788;10.366;2022-09-17T00:41:06;5.43;;;1.10;;
43606;SDS011;29197;44.788;10.366;2022-09-17T00:43:56;2.13;;;0.88;;
43606;SDS011;29197;44.788;10.366;2022-09-17T00:46:46;2.25;;;0.77;;
43606;SDS011;29197;44.788;10.366;2022-09-17T00:49:37;1.25;;;0.60;;
43606;SDS011;29197;44.788;10.366;2022-09-17T00:52:27;3.75;;;0.65;;
43606;SDS011;29197;44.788;10.366;2022-09-17T00:55:23;3.22;;;0.98;;
43606;SDS011;29197;44.788;10.366;2022-09-17T00:58:14;7.70;;;1.25;;
43606;SDS011;29197;44.788;10.366;2022-09-17T01:01:06;6.03;;;0.70;;
43606;SDS011;29197;44.788;10.366;2022-09-17T01:03:55;2.10;;;0.77;;
43606;SDS011;29197;44.788;10.366;2022-09-17T01:06:46;1.85;;;0.77;;
43606;SDS011;29197;44.788;10.366;2022-09-17T01:09:46;2.45;;;0.90;;
43606;SDS011;29197;44.788;10.366;2022-09-17T01:12:58;3.08;;;0.90;;
43606;SDS011;29197;44.788;10.366;2022-09-17T01:15:59;1.75;;;0.70;;
43606;SDS011;29197;44.788;10.366;2022-09-17T01:18:58;4.38;;;0.90;;
43606;SDS011;29197;44.788;10.366;2022-09-17T01:22:00;2.05;;;0.70;;
43606;SDS011;29197;44.788;10.366;2022-09-17T01:25:03;1.38;;;0.68;;
43606;SDS011;29197;44.788;10.366;2022-09-17T01:31:28;2.17;;;0.80;;
43606;SDS011;29197;44.788;10.366;2022-09-17T01:34:23;2.05;;;0.63;;
43606;SDS011;29197;44.788;10.366;2022-09-17T01:37:20;4.55;;;0.60;;
43606;SDS011;29197;44.788;10.366;2022-09-17T01:40:18;3.08;;;0.52;;
43606;SDS011;29197;44.788;10.366;2022-09-17T01:43:15;3.30;;;0.52;;
43606;SDS011;29197;44.788;10.366;2022-09-17T01:46:11;2.65;;;0.60;;
43606;SDS011;29197;44.788;10.366;2022-09-17T01:49:04;2.60;;;0.57;;
43606;SDS011;29197;44.788;10.366;2022-09-17T01:51:53;2.67;;;0.70;;
43606;SDS011;29197;44.788;10.366;2022-09-17T01:54:44;0.60;;;0.40;;
43606;SDS011;29197;44.788;10.366;2022-09-17T01:57:36;1.77;;;0.50;;
43606;SDS011;29197;44.788;10.366;2022-09-17T02:00:29;1.48;;;0.65;;
43606;SDS011;29197;44.788;10.366;2022-09-17T02:03:19;1.92;;;0.55;;
43606;SDS011;29197;44.788;10.366;2022-09-17T02:06:14;1.77;;;0.60;;
43606;SDS011;29197;44.788;10.366;2022-09-17T02:09:10;2.75;;;0.40;;
43606;SDS011;29197;44.788;10.366;2022-09-17T02:12:03;3.85;;;0.80;;
43606;SDS011;29197;44.788;10.366;2022-09-17T02:14:59;2.63;;;0.70;;
43606;SDS011;29197;44.788;10.366;2022-09-17T02:17:54;2.78;;;0.68;;
43606;SDS011;29197;44.788;10.366;2022-09-17T02:20:51;0.68;;;0.50;;
43606;SDS011;29197;44.788;10.366;2022-09-17T02:23:49;6.30;;;0.98;;
43606;SDS011;29197;44.788;10.366;2022-09-17T02:26:46;3.03;;;0.98;;
43606;SDS011;29197;44.788;10.366;2022-09-17T02:29:41;3.08;;;0.90;;
43606;SDS011;29197;44.788;10.366;2022-09-17T02:32:31;5.07;;;1.23;;
43606;SDS011;29197;44.788;10.366;2022-09-17T02:35:20;3.55;;;0.80;;
43606;SDS011;29197;44.788;10.366;2022-09-17T02:38:10;2.60;;;0.70;;
43606;SDS011;29197;44.788;10.366;2022-09-17T02:41:03;2.13;;;0.50;;
43606;SDS011;29197;44.788;10.366;2022-09-17T02:44:01;1.45;;;0.60;;
43606;SDS011;29197;44.788;10.366;2022-09-17T02:50:13;2.05;;;1.00;;
43606;SDS011;29197;44.788;10.366;2022-09-17T02:53:18;1.85;;;0.70;;
43606;SDS011;29197;44.788;10.366;2022-09-17T02:56:22;5.07;;;1.10;;
43606;SDS011;29197;44.788;10.366;2022-09-17T02:59:21;3.53;;;0.80;;
43606;SDS011;29197;44.788;10.366;2022-09-17T03:02:15;7.05;;;1.00;;
43606;SDS011;29197;44.788;10.366;2022-09-17T03:05:08;2.05;;;0.60;;
43606;SDS011;29197;44.788;10.366;2022-09-17T03:07:58;4.18;;;1.10;;
43606;SDS011;29197;44.788;10.366;2022-09-17T03:10:48;1.63;;;1.10;;
43606;SDS011;29197;44.788;10.366;2022-09-17T03:13:38;2.30;;;0.70;;
43606;SDS011;29197;44.788;10.366;2022-09-17T03:16:27;3.25;;;0.70;;
43606;SDS011;29197;44.788;10.366;2022-09-17T03:19:17;2.25;;;1.08;;
43606;SDS011;29197;44.788;10.366;2022-09-17T03:22:06;4.45;;;0.93;;
43606;SDS011;29197;44.788;10.366;2022-09-17T03:24:55;2.03;;;0.73;;
43606;SDS011;29197;44.788;10.366;2022-09-17T03:27:45;1.60;;;0.63;;
43606;SDS011;29197;44.788;10.366;2022-09-17T03:30:35;4.00;;;0.60;;
43606;SDS011;29197;44.788;10.366;2022-09-17T03:33:24;8.77;;;0.85;;
43606;SDS011;29197;44.788;10.366;2022-09-17T03:36:14;4.82;;;0.73;;
43606;SDS011;29197;44.788;10.366;2022-09-17T03:39:04;7.13;;;1.73;;
43606;SDS011;29197;44.788;10.366;2022-09-17T03:41:53;6.80;;;1.30;;
43606;SDS011;29197;44.788;10.366;2022-09-17T03:44:42;7.03;;;1.27;;
43606;SDS011;29197;44.788;10.366;2022-09-17T03:47:33;4.60;;;0.82;;
43606;SDS011;29197;44.788;10.366;2022-09-17T03:50:22;6.60;;;1.10;;
43606;SDS011;29197;44.788;10.366;2022-09-17T03:53:12;4.03;;;0.90;;
43606;SDS011;29197;44.788;10.366;2022-09-17T03:56:02;2.63;;;0.90;;
43606;SDS011;29197;44.788;10.366;2022-09-17T03:58:55;2.20;;;0.65;;
43606;SDS011;29197;44.788;10.366;2022-09-17T04:01:45;3.00;;;0.60;;
43606;SDS011;29197;44.788;10.366;2022-09-17T04:04:36;2.70;;;0.90;;
43606;SDS011;29197;44.788;10.366;2022-09-17T04:07:26;3.28;;;0.75;;
43606;SDS011;29197;44.788;10.366;2022-09-17T04:10:15;5.68;;;1.20;;
43606;SDS011;29197;44.788;10.366;2022-09-17T04:13:05;5.22;;;0.68;;
43606;SDS011;29197;44.788;10.366;2022-09-17T04:15:55;4.50;;;0.75;;
43606;SDS011;29197;44.788;10.366;2022-09-17T04:18:44;4.53;;;0.77;;
43606;SDS011;29197;44.788;10.366;2022-09-17T04:21:35;1.80;;;0.40;;
43606;SDS011;29197;44.788;10.366;2022-09-17T04:24:24;1.85;;;0.63;;
43606;SDS011;29197;44.788;10.366;2022-09-17T04:27:13;2.75;;;0.60;;
43606;SDS011;29197;44.788;10.366;2022-09-17T04:30:03;4.60;;;0.40;;
43606;SDS011;29197;44.788;10.366;2022-09-17T04:32:53;1.15;;;0.50;;
43606;SDS011;29197;44.788;10.366;2022-09-17T04:35:42;2.55;;;0.60;;
43606;SDS011;29197;44.788;10.366;2022-09-17T04:38:34;2.38;;;0.50;;
43606;SDS011;29197;44.788;10.366;2022-09-17T04:41:23;2.28;;;0.52;;
43606;SDS011;29197;44.788;10.366;2022-09-17T04:44:13;0.88;;;0.57;;
43606;SDS011;29197;44.788;10.366;2022-09-17T04:47:02;0.20;;;0.17;;
43606;SDS011;29197;44.788;10.366;2022-09-17T04:49:51;1.45;;;0.17;;
43606;SDS011;29197;44.788;10.366;2022-09-17T04:52:41;0.40;;;0.35;;
43606;SDS011;29197;44.788;10.366;2022-09-17T04:55:33;0.52;;;0.40;;
43606;SDS011;29197;44.788;10.366;2022-09-17T04:58:22;3.15;;;0.73;;
43606;SDS011;29197;44.788;10.366;2022-09-17T05:01:11;1.38;;;0.95;;
43606;SDS011;29197;44.788;10.366;2022-09-17T06:04:19;0.50;;;0.40;;
43606;SDS011;29197;44.788;10.366;2022-09-17T06:07:09;0.95;;;0.60;;
43606;SDS011;29197;44.788;10.366;2022-09-17T06:09:58;1.13;;;0.50;;
43606;SDS011;29197;44.788;10.366;2022-09-17T06:12:48;1.10;;;0.30;;
43606;SDS011;29197;44.788;10.366;2022-09-17T06:15:47;3.17;;;0.50;;
43606;SDS011;29197;44.788;10.366;2022-09-17T06:18:38;0.20;;;0.20;;
43606;SDS011;29197;44.788;10.366;2022-09-17T06:21:28;0.10;;;0.10;;
43606;SDS011;29197;44.788;10.366;2022-09-17T06:24:18;0.10;;;0.10;;
43606;SDS011;29197;44.788;10.366;2022-09-17T06:27:07;0.32;;;0.30;;
43606;SDS011;29197;44.788;10.366;2022-09-17T06:29:56;0.32;;;0.30;;
43606;SDS011;29197;44.788;10.366;2022-09-17T06:32:44;0.40;;;0.28;;
43606;SDS011;29197;44.788;10.366;2022-09-17T06:35:33;0.55;;;0.30;;
43606;SDS011;29197;44.788;10.366;2022-09-17T06:38:24;1.55;;;0.40;;
43606;SDS011;29197;44.788;10.366;2022-09-17T06:41:13;0.77;;;0.30;;
43606;SDS011;29197;44.788;10.366;2022-09-17T06:44:03;0.25;;;0.25;;
43606;SDS011;29197;44.788;10.366;2022-09-17T06:46:53;0.38;;;0.30;;
43606;SDS011;29197;44.788;10.366;2022-09-17T06:49:43;0.73;;;0.32;;
43606;SDS011;29197;44.788;10.366;2022-09-17T06:52:32;0.40;;;0.25;;
43606;SDS011;29197;44.788;10.366;2022-09-17T06:55:24;0.57;;;0.30;;
43606;SDS011;29197;44.788;10.366;2022-09-17T06:58:14;0.90;;;0.20;;
43606;SDS011;29197;44.788;10.366;2022-09-17T07:01:04;0.75;;;0.30;;
43606;SDS011;29197;44.788;10.366;2022-09-17T07:03:53;0.40;;;0.30;;
43606;SDS011;29197;44.788;10.366;2022-09-17T07:06:43;1.65;;;0.30;;
43606;SDS011;29197;44.788;10.366;2022-09-17T07:09:32;1.38;;;0.55;;
43606;SDS011;29197;44.788;10.366;2022-09-17T07:12:22;0.45;;;0.45;;
43606;SDS011;29197;44.788;10.366;2022-09-17T07:15:12;1.33;;;0.47;;
43606;SDS011;29197;44.788;10.366;2022-09-17T07:18:06;0.40;;;0.25;;
43606;SDS011;29197;44.788;10.366;2022-09-17T07:20:56;0.38;;;0.30;;
43606;SDS011;29197;44.788;10.366;2022-09-17T07:23:46;0.88;;;0.40;;
43606;SDS011;29197;44.788;10.366;2022-09-17T07:26:36;2.70;;;0.30;;
43606;SDS011;29197;44.788;10.366;2022-09-17T07:29:26;2.05;;;0.32;;
43606;SDS011;29197;44.788;10.366;2022-09-17T07:32:17;4.90;;;0.50;;
43606;SDS011;29197;44.788;10.366;2022-09-17T07:35:07;1.00;;;0.47;;
43606;SDS011;29197;44.788;10.366;2022-09-17T07:37:57;0.20;;;0.17;;
43606;SDS011;29197;44.788;10.366;2022-09-17T07:40:51;1.00;;;0.32;;
43606;SDS011;29197;44.788;10.366;2022-09-17T07:43:41;0.65;;;0.10;;
43606;SDS011;29197;44.788;10.366;2022-09-17T07:46:33;1.05;;;0.30;;
43606;SDS011;29197;44.788;10.366;2022-09-17T07:49:22;0.65;;;0.22;;
43606;SDS011;29197;44.788;10.366;2022-09-17T07:52:11;0.57;;;0.28;;
43606;SDS011;29197;44.788;10.366;2022-09-17T07:55:01;0.40;;;0.25;;
43606;SDS011;29197;44.788;10.366;2022-09-17T07:57:50;0.82;;;0.20;;
43606;SDS011;29197;44.788;10.366;2022-09-17T08:00:40;0.50;;;0.38;;
43606;SDS011;29197;44.788;10.366;2022-09-17T08:03:31;0.45;;;0.22;;
43606;SDS011;29197;44.788;10.366;2022-09-17T08:06:21;0.82;;;0.20;;
43606;SDS011;29197;44.788;10.366;2022-09-17T08:09:12;0.50;;;0.30;;
43606;SDS011;29197;44.788;10.366;2022-09-17T08:12:01;1.58;;;0.40;;
43606;SDS011;29197;44.788;10.366;2022-09-17T08:14:50;1.13;;;0.40;;
43606;SDS011;29197;44.788;10.366;2022-09-17T08:17:41;0.47;;;0.17;;
43606;SDS011;29197;44.788;10.366;2022-09-17T08:20:32;2.03;;;0.30;;
43606;SDS011;29197;44.788;10.366;2022-09-17T08:23:21;0.75;;;0.20;;
43606;SDS011;29197;44.788;10.366;2022-09-17T08:26:11;0.22;;;0.22;;
43606;SDS011;29197;44.788;10.366;2022-09-17T08:29:01;4.50;;;0.30;;
43606;SDS011;29197;44.788;10.366;2022-09-17T08:31:50;0.65;;;0.20;;
43606;SDS011;29197;44.788;10.366;2022-09-17T08:34:39;1.83;;;0.40;;
43606;SDS011;29197;44.788;10.366;2022-09-17T08:37:29;0.60;;;0.43;;
43606;SDS011;29197;44.788;10.366;2022-09-17T08:40:19;0.70;;;0.20;;
43606;SDS011;29197;44.788;10.366;2022-09-17T08:43:10;0.28;;;0.20;;
43606;SDS011;29197;44.788;10.366;2022-09-17T08:46:06;1.27;;;0.20;;
43606;SDS011;29197;44.788;10.366;2022-09-17T08:49:04;0.20;;;0.20;;
43606;SDS011;29197;44.788;10.366;2022-09-17T08:55:27;1.58;;;0.30;;
43606;SDS011;29197;44.788;10.366;2022-09-17T08:58:30;0.70;;;0.40;;
43606;SDS011;29197;44.788;10.366;2022-09-17T09:01:30;0.40;;;0.20;;
43606;SDS011;29197;44.788;10.366;2022-09-17T09:04:26;0.90;;;0.22;;
43606;SDS011;29197;44.788;10.366;2022-09-17T09:07:30;1.65;;;0.28;;
43606;SDS011;29197;44.788;10.366;2022-09-17T09:10:25;0.40;;;0.30;;
43606;SDS011;29197;44.788;10.366;2022-09-17T09:13:18;0.80;;;0.20;;
43606;SDS011;29197;44.788;10.366;2022-09-17T09:16:10;2.72;;;0.40;;
43606;SDS011;29197;44.788;10.366;2022-09-17T09:19:09;0.10;;;0.10;;
43606;SDS011;29197;44.788;10.366;2022-09-17T09:22:10;1.35;;;0.13;;
43606;SDS011;29197;44.788;10.366;2022-09-17T09:25:13;2.05;;;0.40;;
43606;SDS011;29197;44.788;10.366;2022-09-17T09:28:15;0.52;;;0.20;;
43606;SDS011;29197;44.788;10.366;2022-09-17T09:31:23;0.30;;;0.10;;
43606;SDS011;29197;44.788;10.366;2022-09-17T09:34:33;1.17;;;0.20;;
43606;SDS011;29197;44.788;10.366;2022-09-17T09:37:24;2.17;;;0.10;;
43606;SDS011;29197;44.788;10.366;2022-09-17T09:40:22;0.65;;;0.20;;
43606;SDS011;29197;44.788;10.366;2022-09-17T09:43:14;0.32;;;0.10;;
43606;SDS011;29197;44.788;10.366;2022-09-17T09:49:22;0.73;;;0.20;;
43606;SDS011;29197;44.788;10.366;2022-09-17T09:52:24;0.52;;;0.20;;
43606;SDS011;29197;44.788;10.366;2022-09-17T09:55:33;0.65;;;0.30;;
43606;SDS011;29197;44.788;10.366;2022-09-17T09:58:33;1.65;;;0.20;;
43606;SDS011;29197;44.788;10.366;2022-09-17T10:01:24;0.65;;;0.32;;
43606;SDS011;29197;44.788;10.366;2022-09-17T10:04:18;4.57;;;0.38;;
43606;SDS011;29197;44.788;10.366;2022-09-17T10:07:11;0.90;;;0.30;;
43606;SDS011;29197;44.788;10.366;2022-09-17T10:10:07;0.30;;;0.30;;
43606;SDS011;29197;44.788;10.366;2022-09-17T10:13:09;4.40;;;0.70;;
43606;SDS011;29197;44.788;10.366;2022-09-17T10:16:14;1.83;;;0.88;;
43606;SDS011;29197;44.788;10.366;2022-09-17T10:19:10;0.90;;;0.22;;
43606;SDS011;29197;44.788;10.366;2022-09-17T10:22:07;0.20;;;0.20;;
43606;SDS011;29197;44.788;10.366;2022-09-17T10:25:17;0.55;;;0.38;;
43606;SDS011;29197;44.788;10.366;2022-09-17T10:28:36;1.50;;;0.50;;
43606;SDS011;29197;44.788;10.366;2022-09-17T10:31:44;1.80;;;0.57;;
43606;SDS011;29197;44.788;10.366;2022-09-17T10:34:34;0.68;;;0.30;;
43606;SDS011;29197;44.788;10.366;2022-09-17T10:37:31;1.05;;;0.30;;
43606;SDS011;29197;44.788;10.366;2022-09-17T10:40:24;0.25;;;0.25;;
43606;SDS011;29197;44.788;10.366;2022-09-17T10:43:22;0.73;;;0.30;;
43606;SDS011;29197;44.788;10.366;2022-09-17T10:46:14;0.43;;;0.30;;
43606;SDS011;29197;44.788;10.366;2022-09-17T10:49:11;4.80;;;0.50;;
43606;SDS011;29197;44.788;10.366;2022-09-17T10:52:13;0.30;;;0.30;;
43606;SDS011;29197;44.788;10.366;2022-09-17T10:55:14;0.98;;;0.32;;
43606;SDS011;29197;44.788;10.366;2022-09-17T10:58:10;0.40;;;0.40;;
43606;SDS011;29197;44.788;10.366;2022-09-17T11:01:21;1.08;;;0.30;;
43606;SDS011;29197;44.788;10.366;2022-09-17T11:04:21;0.20;;;0.20;;
43606;SDS011;29197;44.788;10.366;2022-09-17T11:07:23;0.28;;;0.22;;
43606;SDS011;29197;44.788;10.366;2022-09-17T11:10:22;0.30;;;0.30;;
43606;SDS011;29197;44.788;10.366;2022-09-17T11:13:20;0.22;;;0.22;;
43606;SDS011;29197;44.788;10.366;2022-09-17T11:16:21;0.73;;;0.25;;
43606;SDS011;29197;44.788;10.366;2022-09-17T11:19:26;0.30;;;0.30;;
43606;SDS011;29197;44.788;10.366;2022-09-17T11:22:22;0.13;;;0.13;;
43606;SDS011;29197;44.788;10.366;2022-09-17T11:25:19;0.20;;;0.10;;
43606;SDS011;29197;44.788;10.366;2022-09-17T11:28:23;0.30;;;0.20;;
43606;SDS011;29197;44.788;10.366;2022-09-17T11:31:16;0.28;;;0.28;;
43606;SDS011;29197;44.788;10.366;2022-09-17T11:34:16;0.43;;;0.35;;
43606;SDS011;29197;44.788;10.366;2022-09-17T11:37:15;2.08;;;0.10;;
43606;SDS011;29197;44.788;10.366;2022-09-17T11:40:11;0.55;;;0.20;;
43606;SDS011;29197;44.788;10.366;2022-09-17T11:43:06;0.98;;;0.35;;
43606;SDS011;29197;44.788;10.366;2022-09-17T11:45:58;0.20;;;0.13;;
43606;SDS011;29197;44.788;10.366;2022-09-17T11:48:51;0.40;;;0.20;;
43606;SDS011;29197;44.788;10.366;2022-09-17T11:51:48;0.70;;;0.20;;
43606;SDS011;29197;44.788;10.366;2022-09-17T11:54:44;0.75;;;0.35;;
43606;SDS011;29197;44.788;10.366;2022-09-17T11:57:38;1.85;;;0.20;;
43606;SDS011;29197;44.788;10.366;2022-09-17T12:00:29;0.20;;;0.20;;
43606;SDS011;29197;44.788;10.366;2022-09-17T12:03:23;0.43;;;0.10;;
43606;SDS011;29197;44.788;10.366;2022-09-17T12:06:19;0.35;;;0.10;;
43606;SDS011;29197;44.788;10.366;2022-09-17T12:09:14;0.57;;;0.32;;
43606;SDS011;29197;44.788;10.366;2022-09-17T12:12:09;0.50;;;0.20;;
43606;SDS011;29197;44.788;10.366;2022-09-17T12:15:23;0.95;;;0.10;;
43606;SDS011;29197;44.788;10.366;2022-09-17T12:18:19;0.10;;;0.10;;
43606;SDS011;29197;44.788;10.366;2022-09-17T12:21:20;0.15;;;0.10;;
43606;SDS011;29197;44.788;10.366;2022-09-17T12:24:13;2.00;;;0.13;;
43606;SDS011;29197;44.788;10.366;2022-09-17T12:27:14;2.05;;;0.30;;
43606;SDS011;29197;44.788;10.366;2022-09-17T12:30:06;0.45;;;0.15;;
43606;SDS011;29197;44.788;10.366;2022-09-17T12:33:11;0.22;;;0.08;;
43606;SDS011;29197;44.788;10.366;2022-09-17T12:36:15;0.20;;;0.10;;
43606;SDS011;29197;44.788;10.366;2022-09-17T12:39:27;0.63;;;0.25;;
43606;SDS011;29197;44.788;10.366;2022-09-17T12:42:40;0.10;;;0.10;;
43606;SDS011;29197;44.788;10.366;2022-09-17T12:45:50;0.32;;;0.20;;
43606;SDS011;29197;44.788;10.366;2022-09-17T12:52:17;0.20;;;0.20;;
43606;SDS011;29197;44.788;10.366;2022-09-17T12:55:28;1.60;;;0.20;;
43606;SDS011;29197;44.788;10.366;2022-09-17T12:58:31;1.95;;;0.30;;
43606;SDS011;29197;44.788;10.366;2022-09-17T13:01:34;0.10;;;0.10;;
43606;SDS011;29197;44.788;10.366;2022-09-17T13:04:47;0.45;;;0.20;;
43606;SDS011;29197;44.788;10.366;2022-09-17T13:08:02;0.40;;;0.30;;
43606;SDS011;29197;44.788;10.366;2022-09-17T13:11:03;0.30;;;0.30;;
43606;SDS011;29197;44.788;10.366;2022-09-17T13:14:14;0.22;;;0.10;;
43606;SDS011;29197;44.788;10.366;2022-09-17T13:17:10;0.65;;;0.20;;
43606;SDS011;29197;44.788;10.366;2022-09-17T13:20:10;0.20;;;0.20;;
43606;SDS011;29197;44.788;10.366;2022-09-17T13:23:03;1.38;;;0.25;;
43606;SDS011;29197;44.788;10.366;2022-09-17T13:25:53;0.68;;;0.22;;
43606;SDS011;29197;44.788;10.366;2022-09-17T13:28:44;1.55;;;0.20;;
43606;SDS011;29197;44.788;10.366;2022-09-17T13:31:47;0.30;;;0.30;;
43606;SDS011;29197;44.788;10.366;2022-09-17T13:34:37;0.17;;;0.10;;
43606;SDS011;29197;44.788;10.366;2022-09-17T13:37:25;0.40;;;0.10;;
43606;SDS011;29197;44.788;10.366;2022-09-17T13:40:18;0.10;;;0.10;;
43606;SDS011;29197;44.788;10.366;2022-09-17T13:43:09;0.10;;;0.10;;
43606;SDS011;29197;44.788;10.366;2022-09-17T13:46:12;0.00;;;0.00;;
43606;SDS011;29197;44.788;10.366;2022-09-17T13:49:11;0.20;;;0.10;;
43606;SDS011;29197;44.788;10.366;2022-09-17T13:52:01;0.00;;;0.00;;
43606;SDS011;29197;44.788;10.366;2022-09-17T13:54:57;0.05;;;0.05;;
43606;SDS011;29197;44.788;10.366;2022-09-17T13:57:47;0.15;;;0.15;;
43606;SDS011;29197;44.788;10.366;2022-09-17T14:00:48;0.00;;;0.00;;
43606;SDS011;29197;44.788;10.366;2022-09-17T14:03:54;0.03;;;0.03;;
43606;SDS011;29197;44.788;10.366;2022-09-17T14:06:48;0.00;;;0.00;;
43606;SDS011;29197;44.788;10.366;2022-09-17T14:09:49;0.25;;;0.10;;
43606;SDS011;29197;44.788;10.366;2022-09-17T14:12:56;0.00;;;0.00;;
43606;SDS011;29197;44.788;10.366;2022-09-17T14:16:20;0.10;;;0.05;;
43606;SDS011;29197;44.788;10.366;2022-09-17T14:19:32;0.10;;;0.00;;
43606;SDS011;29197;44.788;10.366;2022-09-17T14:22:34;0.22;;;0.22;;
43606;SDS011;29197;44.788;10.366;2022-09-17T14:25:26;0.00;;;0.00;;
43606;SDS011;29197;44.788;10.366;2022-09-17T14:28:26;0.22;;;0.10;;
43606;SDS011;29197;44.788;10.366;2022-09-17T14:31:24;0.00;;;0.00;;
43606;SDS011;29197;44.788;10.366;2022-09-17T14:34:19;0.10;;;0.00;;
43606;SDS011;29197;44.788;10.366;2022-09-17T14:37:13;0.52;;;0.20;;
43606;SDS011;29197;44.788;10.366;2022-09-17T14:40:06;0.15;;;0.10;;
43606;SDS011;29197;44.788;10.366;2022-09-17T14:42:57;0.15;;;0.13;;
43606;SDS011;29197;44.788;10.366;2022-09-17T14:45:47;0.93;;;0.17;;
43606;SDS011;29197;44.788;10.366;2022-09-17T14:48:40;0.20;;;0.15;;
43606;SDS011;29197;44.788;10.366;2022-09-17T14:51:29;2.83;;;0.15;;
43606;SDS011;29197;44.788;10.366;2022-09-17T14:54:20;0.10;;;0.10;;
43606;SDS011;29197;44.788;10.366;2022-09-17T14:57:16;0.00;;;0.00;;
43606;SDS011;29197;44.788;10.366;2022-09-17T15:00:15;0.32;;;0.10;;
43606;SDS011;29197;44.788;10.366;2022-09-17T15:03:18;0.77;;;0.28;;
43606;SDS011;29197;44.788;10.366;2022-09-17T15:06:17;0.43;;;0.20;;
43606;SDS011;29197;44.788;10.366;2022-09-17T15:09:13;0.40;;;0.13;;
43606;SDS011;29197;44.788;10.366;2022-09-17T15:13:00;0.00;;;0.00;;
43606;SDS011;29197;44.788;10.366;2022-09-17T15:16:12;0.35;;;0.05;;
43606;SDS011;29197;44.788;10.366;2022-09-17T15:19:08;0.03;;;0.03;;
43606;SDS011;29197;44.788;10.366;2022-09-17T15:22:03;0.10;;;0.00;;
43606;SDS011;29197;44.788;10.366;2022-09-17T15:24:56;0.93;;;0.13;;
43606;SDS011;29197;44.788;10.366;2022-09-17T15:27:55;0.30;;;0.10;;
43606;SDS011;29197;44.788;10.366;2022-09-17T15:30:54;0.22;;;0.20;;
43606;SDS011;29197;44.788;10.366;2022-09-17T15:33:43;0.20;;;0.10;;
43606;SDS011;29197;44.788;10.366;2022-09-17T15:36:33;0.60;;;0.20;;
43606;SDS011;29197;44.788;10.366;2022-09-17T15:39:30;0.10;;;0.10;;
43606;SDS011;29197;44.788;10.366;2022-09-17T15:42:26;0.10;;;0.10;;
43606;SDS011;29197;44.788;10.366;2022-09-17T15:45:19;0.10;;;0.10;;
43606;SDS011;29197;44.788;10.366;2022-09-17T15:48:16;0.10;;;0.10;;
43606;SDS011;29197;44.788;10.366;2022-09-17T15:51:14;0.10;;;0.03;;
43606;SDS011;29197;44.788;10.366;2022-09-17T15:54:24;0.00;;;0.00;;
43606;SDS011;29197;44.788;10.366;2022-09-17T15:57:16;0.05;;;0.00;;
43606;SDS011;29197;44.788;10.366;2022-09-17T16:00:10;0.20;;;0.20;;
43606;SDS011;29197;44.788;10.366;2022-09-17T16:03:16;1.75;;;0.30;;
43606;SDS011;29197;44.788;10.366;2022-09-17T16:06:34;1.35;;;0.20;;
43606;SDS011;29197;44.788;10.366;2022-09-17T16:09:40;1.55;;;0.10;;
43606;SDS011;29197;44.788;10.366;2022-09-17T16:12:32;1.23;;;0.22;;
43606;SDS011;29197;44.788;10.366;2022-09-17T16:15:22;0.10;;;0.10;;
43606;SDS011;29197;44.788;10.366;2022-09-17T16:18:13;0.95;;;0.20;;
43606;SDS011;29197;44.788;10.366;2022-09-17T16:21:03;1.77;;;0.20;;
43606;SDS011;29197;44.788;10.366;2022-09-17T16:23:53;1.00;;;0.50;;
43606;SDS011;29197;44.788;10.366;2022-09-17T16:26:44;0.60;;;0.30;;
43606;SDS011;29197;44.788;10.366;2022-09-17T16:29:32;0.88;;;0.43;;
43606;SDS011;29197;44.788;10.366;2022-09-17T16:32:22;0.38;;;0.22;;
43606;SDS011;29197;44.788;10.366;2022-09-17T16:35:13;1.58;;;0.50;;
43606;SDS011;29197;44.788;10.366;2022-09-17T16:38:04;0.57;;;0.30;;
43606;SDS011;29197;44.788;10.366;2022-09-17T16:40:54;0.00;;;0.00;;
43606;SDS011;29197;44.788;10.366;2022-09-17T16:43:44;0.50;;;0.40;;
43606;SDS011;29197;44.788;10.366;2022-09-17T16:46:34;1.55;;;0.80;;
43606;SDS011;29197;44.788;10.366;2022-09-17T16:49:23;0.40;;;0.38;;
43606;SDS011;29197;44.788;10.366;2022-09-17T16:52:13;0.55;;;0.30;;
43606;SDS011;29197;44.788;10.366;2022-09-17T16:55:03;0.32;;;0.30;;
43606;SDS011;29197;44.788;10.366;2022-09-17T16:57:53;0.50;;;0.30;;
43606;SDS011;29197;44.788;10.366;2022-09-17T17:00:44;0.93;;;0.20;;
43606;SDS011;29197;44.788;10.366;2022-09-17T17:03:33;0.10;;;0.10;;
43606;SDS011;29197;44.788;10.366;2022-09-17T17:06:22;1.48;;;0.98;;
43606;SDS011;29197;44.788;10.366;2022-09-17T17:09:13;1.52;;;1.02;;
43606;SDS011;29197;44.788;10.366;2022-09-17T17:12:02;1.48;;;1.23;;
43606;SDS011;29197;44.788;10.366;2022-09-17T17:14:52;2.85;;;1.40;;
43606;SDS011;29197;44.788;10.366;2022-09-17T17:17:41;1.83;;;1.38;;
43606;SDS011;29197;44.788;10.366;2022-09-17T17:20:33;1.30;;;1.08;;
43606;SDS011;29197;44.788;10.366;2022-09-17T17:23:22;3.25;;;2.17;;
43606;SDS011;29197;44.788;10.366;2022-09-17T17:26:13;7.07;;;4.00;;
43606;SDS011;29197;44.788;10.366;2022-09-17T17:29:02;5.38;;;3.85;;
43606;SDS011;29197;44.788;10.366;2022-09-17T17:31:51;5.82;;;3.47;;
43606;SDS011;29197;44.788;10.366;2022-09-17T17:34:41;5.70;;;3.67;;
43606;SDS011;29197;44.788;10.366;2022-09-17T17:37:30;4.68;;;3.03;;
43606;SDS011;29197;44.788;10.366;2022-09-17T17:40:20;4.93;;;2.50;;
43606;SDS011;29197;44.788;10.366;2022-09-17T17:43:12;3.53;;;2.03;;
43606;SDS011;29197;44.788;10.366;2022-09-17T17:46:04;2.45;;;1.90;;
43606;SDS011;29197;44.788;10.366;2022-09-17T17:48:53;3.00;;;1.70;;
43606;SDS011;29197;44.788;10.366;2022-09-17T17:51:44;2.05;;;1.35;;
43606;SDS011;29197;44.788;10.366;2022-09-17T17:54:35;2.85;;;1.23;;
43606;SDS011;29197;44.788;10.366;2022-09-17T17:57:24;2.60;;;0.90;;
43606;SDS011;29197;44.788;10.366;2022-09-17T18:00:16;1.02;;;0.75;;
43606;SDS011;29197;44.788;10.366;2022-09-17T18:03:07;1.25;;;0.65;;
43606;SDS011;29197;44.788;10.366;2022-09-17T18:05:57;2.78;;;0.93;;
43606;SDS011;29197;44.788;10.366;2022-09-17T18:08:47;0.80;;;0.60;;
43606;SDS011;29197;44.788;10.366;2022-09-17T18:11:36;1.05;;;0.60;;
43606;SDS011;29197;44.788;10.366;2022-09-17T18:14:25;1.50;;;0.60;;
43606;SDS011;29197;44.788;10.366;2022-09-17T18:17:16;1.50;;;0.60;;
43606;SDS011;29197;44.788;10.366;2022-09-17T18:20:05;2.85;;;1.20;;
43606;SDS011;29197;44.788;10.366;2022-09-17T18:22:55;2.38;;;1.30;;
43606;SDS011;29197;44.788;10.366;2022-09-17T18:25:51;1.73;;;1.13;;
43606;SDS011;29197;44.788;10.366;2022-09-17T18:28:40;2.05;;;0.98;;
43606;SDS011;29197;44.788;10.366;2022-09-17T18:31:31;1.38;;;1.00;;